createdAt,value
2024-04-18T00:00:54.445Z,0.85
2024-04-18T00:01:54.397Z,0.85
2024-04-18T00:02:54.370Z,0.86
2024-04-18T00:03:54.504Z,0.86
2024-04-18T00:04:54.461Z,0.85
2024-04-18T00:05:54.396Z,0.85
2024-04-18T00:06:54.457Z,0.86
2024-04-18T00:07:54.382Z,0.84
2024-04-18T00:08:54.359Z,0.84
2024-04-18T00:09:54.367Z,0.83
2024-04-18T00:10:54.415Z,0.82
2024-04-18T00:11:54.352Z,0.82
2024-04-18T00:12:54.347Z,0.82
2024-04-18T00:13:55.075Z,0.82
2024-04-18T00:14:54.344Z,0.81
2024-04-18T00:15:54.421Z,0.81
2024-04-18T00:16:54.325Z,0.81
2024-04-18T00:17:54.747Z,0.81
2024-04-18T00:18:54.384Z,0.81
2024-04-18T00:19:54.335Z,0.79
2024-04-18T00:20:54.332Z,0.81
2024-04-18T00:21:54.326Z,0.81
2024-04-18T00:22:54.336Z,0.80
2024-04-18T00:23:54.316Z,0.80
2024-04-18T00:24:54.413Z,0.80
2024-04-18T00:25:54.291Z,0.80
2024-04-18T00:26:54.282Z,0.80
2024-04-18T00:27:54.288Z,0.81
2024-04-18T00:28:54.284Z,0.80
2024-04-18T00:29:54.285Z,0.80
2024-04-18T00:30:54.389Z,0.78
2024-04-18T00:31:54.346Z,0.81
2024-04-18T00:32:54.367Z,0.81
2024-04-18T00:33:54.387Z,0.80
2024-04-18T00:34:54.328Z,0.81
2024-04-18T00:35:54.347Z,0.81
2024-04-18T00:36:54.341Z,0.81
2024-04-18T00:37:54.346Z,0.81
2024-04-18T00:38:54.479Z,0.82
2024-04-18T00:39:54.407Z,0.80
2024-04-18T00:40:54.374Z,0.80
2024-04-18T00:41:54.366Z,0.79
2024-04-18T00:42:54.377Z,0.81
2024-04-18T00:43:54.355Z,0.77
2024-04-18T00:44:54.347Z,0.80
2024-04-18T00:45:54.424Z,0.79
2024-04-18T00:46:54.352Z,0.79
2024-04-18T00:47:54.536Z,0.81
2024-04-18T00:48:54.461Z,0.79
2024-04-18T00:49:54.359Z,0.80
2024-04-18T00:50:54.377Z,0.81
2024-04-18T00:51:54.367Z,0.79
2024-04-18T00:52:54.383Z,0.80
2024-04-18T00:53:54.366Z,0.78
2024-04-18T00:54:54.471Z,0.78
2024-04-18T00:55:54.394Z,0.78
2024-04-18T00:56:54.396Z,0.78
2024-04-18T00:57:54.405Z,0.77
2024-04-18T00:58:54.427Z,0.78
2024-04-18T00:59:54.448Z,0.77
2024-04-18T01:00:54.567Z,0.75
2024-04-18T01:01:54.471Z,0.76
2024-04-18T01:02:54.462Z,0.76
2024-04-18T01:03:54.621Z,0.75
2024-04-18T01:04:54.508Z,0.75
2024-04-18T01:05:54.491Z,0.75
2024-04-18T01:06:54.508Z,0.74
2024-04-18T01:07:54.483Z,0.73
2024-04-18T01:08:54.484Z,0.73
2024-04-18T01:09:54.501Z,0.73
2024-04-18T01:10:54.485Z,0.72
2024-04-18T01:11:54.564Z,0.75
2024-04-18T01:12:54.514Z,0.74
2024-04-18T01:13:54.490Z,0.73
2024-04-18T01:14:54.499Z,0.74
2024-04-18T01:15:54.547Z,0.74
2024-04-18T01:16:54.513Z,0.74
2024-04-18T01:17:54.680Z,0.74
2024-04-18T01:18:54.544Z,0.73
2024-04-18T01:19:54.526Z,0.73
2024-04-18T01:20:54.541Z,0.74
2024-04-18T01:21:54.587Z,0.74
2024-04-18T01:22:54.546Z,0.73
2024-04-18T01:23:54.571Z,0.71
2024-04-18T01:24:54.553Z,0.70
2024-04-18T01:25:54.536Z,0.71
2024-04-18T01:26:54.550Z,0.70
2024-04-18T01:27:54.526Z,0.70
2024-04-18T01:28:54.522Z,0.70
2024-04-18T01:29:54.554Z,0.71
2024-04-18T01:30:54.570Z,0.70
2024-04-18T01:31:54.547Z,0.69
2024-04-18T01:32:54.609Z,0.69
2024-04-18T01:33:54.580Z,0.69
2024-04-18T01:34:54.524Z,0.68
2024-04-18T01:35:54.541Z,0.68
2024-04-18T01:36:54.595Z,0.69
2024-04-18T01:37:54.522Z,0.69
2024-04-18T01:38:54.553Z,0.68
2024-04-18T01:39:54.527Z,0.67
2024-04-18T01:40:54.476Z,0.67
2024-04-18T01:41:54.500Z,0.67
2024-04-18T01:42:54.494Z,0.67
2024-04-18T01:43:54.486Z,0.66
2024-04-18T01:44:54.501Z,0.66
2024-04-18T01:45:54.490Z,0.67
2024-04-18T01:46:54.471Z,0.65
2024-04-18T01:47:54.561Z,0.65
2024-04-18T01:48:54.499Z,0.67
2024-04-18T01:49:54.483Z,0.65
2024-04-18T01:50:54.482Z,0.65
2024-04-18T01:51:54.482Z,0.65
2024-04-18T01:52:54.443Z,0.67
2024-04-18T01:53:54.472Z,0.66
2024-04-18T01:54:54.448Z,0.65
2024-04-18T01:55:54.448Z,0.66
2024-04-18T01:56:54.414Z,0.65
2024-04-18T01:57:54.424Z,0.66
2024-04-18T01:58:54.419Z,0.65
2024-04-18T01:59:54.414Z,0.65
2024-04-18T02:00:54.456Z,0.66
2024-04-18T02:01:54.389Z,0.66
2024-04-18T02:02:54.432Z,0.67
2024-04-18T02:03:54.411Z,0.66
2024-04-18T02:04:54.391Z,0.66
2024-04-18T02:05:54.401Z,0.68
2024-04-18T02:06:54.422Z,0.67
2024-04-18T02:07:54.450Z,0.67
2024-04-18T02:08:54.427Z,0.66
2024-04-18T02:09:54.507Z,0.66
2024-04-18T02:10:54.498Z,0.66
2024-04-18T02:11:54.497Z,0.66
2024-04-18T02:12:54.517Z,0.64
2024-04-18T02:13:54.528Z,0.64
2024-04-18T02:14:54.512Z,0.65
2024-04-18T02:15:54.523Z,0.65
2024-04-18T02:16:54.546Z,0.67
2024-04-18T02:17:54.629Z,0.66
2024-04-18T02:18:54.677Z,0.67
2024-04-18T02:19:54.590Z,0.65
2024-04-18T02:20:54.613Z,0.66
2024-04-18T02:21:54.656Z,0.66
2024-04-18T02:22:54.628Z,0.64
2024-04-18T02:23:54.649Z,0.64
2024-04-18T02:24:54.624Z,0.63
2024-04-18T02:25:54.647Z,0.65
2024-04-18T02:26:54.643Z,0.65
2024-04-18T02:27:54.683Z,0.64
2024-04-18T02:28:54.604Z,0.65
2024-04-18T02:29:54.611Z,0.64
2024-04-18T02:30:54.675Z,0.64
2024-04-18T02:31:54.746Z,0.65
2024-04-18T02:32:54.639Z,0.64
2024-04-18T02:33:54.686Z,0.64
2024-04-18T02:34:54.603Z,0.64
2024-04-18T02:35:54.616Z,0.63
2024-04-18T02:36:54.660Z,0.64
2024-04-18T02:37:54.593Z,0.62
2024-04-18T02:38:54.640Z,0.63
2024-04-18T02:39:54.632Z,0.62
2024-04-18T02:40:54.642Z,0.64
2024-04-18T02:41:54.586Z,0.64
2024-04-18T02:42:54.604Z,0.63
2024-04-18T02:43:54.705Z,0.63
2024-04-18T02:44:54.583Z,0.63
2024-04-18T02:45:54.640Z,0.64
2024-04-18T02:46:54.603Z,0.63
2024-04-18T02:47:54.792Z,0.62
2024-04-18T02:48:54.670Z,0.62
2024-04-18T02:49:54.611Z,0.62
2024-04-18T02:50:54.646Z,0.63
2024-04-18T02:51:54.690Z,0.63
2024-04-18T02:52:54.656Z,0.64
2024-04-18T02:53:54.690Z,0.64
2024-04-18T02:54:54.719Z,0.63
2024-04-18T02:55:54.709Z,0.63
2024-04-18T02:56:54.680Z,0.64
2024-04-18T02:57:54.702Z,0.63
2024-04-18T02:58:54.688Z,0.64
2024-04-18T02:59:54.677Z,0.63
2024-04-18T03:00:54.718Z,0.65
2024-04-18T03:01:54.662Z,0.63
2024-04-18T03:02:54.786Z,0.64
2024-04-18T03:03:54.763Z,0.63
2024-04-18T03:04:54.656Z,0.63
2024-04-18T03:05:54.683Z,0.63
2024-04-18T03:06:54.647Z,0.64
2024-04-18T03:07:54.670Z,0.63
2024-04-18T03:08:54.649Z,0.63
2024-04-18T03:09:54.668Z,0.64
2024-04-18T03:10:54.657Z,0.63
2024-04-18T03:11:54.660Z,0.63
2024-04-18T03:12:54.668Z,0.64
2024-04-18T03:13:54.648Z,0.63
2024-04-18T03:14:54.644Z,0.63
2024-04-18T03:15:54.811Z,0.61
2024-04-18T03:16:54.635Z,0.61
2024-04-18T03:17:54.826Z,0.62
2024-04-18T03:18:54.695Z,0.61
2024-04-18T03:19:54.643Z,0.61
2024-04-18T03:20:54.644Z,0.60
2024-04-18T03:21:54.818Z,0.59
2024-04-18T03:22:54.676Z,0.54
2024-04-18T03:23:54.699Z,0.50
2024-04-18T03:24:54.752Z,0.50
2024-04-18T03:25:54.821Z,0.50
2024-04-18T03:26:54.816Z,0.50
2024-04-18T03:27:54.858Z,0.47
2024-04-18T03:28:54.824Z,0.44
2024-04-18T03:29:54.828Z,0.39
2024-04-18T03:30:54.851Z,0.36
2024-04-18T03:31:54.864Z,0.34
2024-04-18T03:32:54.910Z,0.42
2024-04-18T03:33:54.903Z,0.47
2024-04-18T03:34:54.856Z,0.50
2024-04-18T03:35:54.877Z,0.50
2024-04-18T03:36:54.923Z,0.50
2024-04-18T03:37:54.892Z,0.50
2024-04-18T03:38:54.947Z,0.50
2024-04-18T03:39:55.040Z,0.50
2024-04-18T03:40:55.048Z,0.50
2024-04-18T03:41:55.163Z,0.50
2024-04-18T03:42:55.212Z,0.50
2024-04-18T03:43:55.260Z,0.50
2024-04-18T03:44:55.435Z,0.50
2024-04-18T03:45:55.408Z,0.50
2024-04-18T03:46:55.436Z,0.50
2024-04-18T03:47:55.608Z,0.50
2024-04-18T03:48:55.619Z,0.50
2024-04-18T03:49:55.653Z,0.50
2024-04-18T03:50:55.735Z,0.50
2024-04-18T03:51:55.844Z,0.50
2024-04-18T03:52:55.852Z,0.50
2024-04-18T03:53:55.941Z,0.51
2024-04-18T03:55:01.948Z,0.51
2024-04-18T03:55:57.018Z,0.50
2024-04-18T03:56:56.031Z,0.48
2024-04-18T03:57:56.071Z,0.48
2024-04-18T03:58:56.078Z,0.48
2024-04-18T03:59:56.043Z,0.47
2024-04-18T04:00:56.152Z,0.51
2024-04-18T04:01:56.054Z,0.51
2024-04-18T04:02:56.059Z,0.50
2024-04-18T04:03:56.212Z,0.51
2024-04-18T04:04:56.205Z,0.50
2024-04-18T04:05:56.297Z,0.52
2024-04-18T04:06:56.389Z,0.50
2024-04-18T04:07:56.418Z,0.50
2024-04-18T04:08:56.416Z,0.50
2024-04-18T04:09:56.522Z,0.50
2024-04-18T04:10:56.467Z,0.51
2024-04-18T04:11:56.471Z,0.52
2024-04-18T04:12:56.523Z,0.54
2024-04-18T04:14:00.236Z,0.54
2024-04-18T04:14:56.494Z,0.53
2024-04-18T04:15:56.534Z,0.54
2024-04-18T04:16:56.506Z,0.54
2024-04-18T04:17:56.609Z,0.54
2024-04-18T04:18:56.819Z,0.56
2024-04-18T04:19:56.547Z,0.57
2024-04-18T04:20:56.562Z,0.56
2024-04-18T04:21:56.645Z,0.59
2024-04-18T04:22:56.600Z,0.57
2024-04-18T04:23:56.610Z,0.58
2024-04-18T04:24:57.565Z,0.60
2024-04-18T04:25:56.609Z,0.60
2024-04-18T04:26:56.614Z,0.60
2024-04-18T04:27:56.697Z,0.60
2024-04-18T04:28:56.630Z,0.60
2024-04-18T04:29:56.644Z,0.60
2024-04-18T04:30:56.774Z,0.61
2024-04-18T04:31:56.742Z,0.61
2024-04-18T04:32:56.696Z,0.61
2024-04-18T04:33:56.703Z,0.62
2024-04-18T04:34:56.702Z,0.64
2024-04-18T04:35:56.715Z,0.64
2024-04-18T04:37:04.075Z,0.50
2024-04-18T04:38:04.044Z,0.50
2024-04-18T04:39:04.034Z,0.50
2024-04-18T04:40:04.051Z,0.50
2024-04-18T04:41:04.040Z,0.50
2024-04-18T04:42:04.044Z,0.50
2024-04-18T04:43:04.142Z,0.50
2024-04-18T04:44:04.064Z,0.50
2024-04-18T04:45:04.094Z,0.53
2024-04-18T04:46:04.056Z,0.52
2024-04-18T04:47:04.055Z,0.53
2024-04-18T04:48:04.116Z,0.52
2024-04-18T04:49:04.113Z,0.52
2024-04-18T04:50:04.061Z,0.52
2024-04-18T04:51:04.070Z,0.52
2024-04-18T04:52:04.094Z,0.53
2024-04-18T04:53:04.070Z,0.53
2024-04-18T04:54:04.050Z,0.54
2024-04-18T04:55:04.079Z,0.54
2024-04-18T04:56:04.123Z,0.54
2024-04-18T04:57:04.083Z,0.55
2024-04-18T04:58:04.086Z,0.55
2024-04-18T04:59:04.095Z,0.56
2024-04-18T05:00:04.164Z,0.56
2024-04-18T05:01:04.219Z,0.58
2024-04-18T05:02:04.118Z,0.57
2024-04-18T05:03:04.131Z,0.58
2024-04-18T05:04:04.155Z,0.56
2024-04-18T05:05:04.133Z,0.57
2024-04-18T05:06:04.135Z,0.56
2024-04-18T05:07:04.146Z,0.56
2024-04-18T05:08:04.168Z,0.56
2024-04-18T05:09:04.146Z,0.56
2024-04-18T05:10:04.201Z,0.55
2024-04-18T05:11:04.251Z,0.54
2024-04-18T05:12:04.183Z,0.53
2024-04-18T05:13:04.185Z,0.54
2024-04-18T05:14:04.196Z,0.52
2024-04-18T05:15:04.187Z,0.54
2024-04-18T05:16:04.293Z,0.53
2024-04-18T05:17:04.210Z,0.51
2024-04-18T05:18:04.301Z,0.51
2024-04-18T05:19:04.266Z,0.50
2024-04-18T05:20:04.280Z,0.51
2024-04-18T05:21:04.347Z,0.50
2024-04-18T05:22:04.280Z,0.49
2024-04-18T05:23:04.287Z,0.48
2024-04-18T05:24:04.308Z,0.47
2024-04-18T05:25:04.310Z,0.47
2024-04-18T05:26:04.332Z,0.51
2024-04-18T05:27:04.341Z,0.52
2024-04-18T05:28:04.377Z,0.51
2024-04-18T05:29:04.338Z,0.50
2024-04-18T05:30:04.558Z,0.51
2024-04-18T05:31:04.687Z,0.52
2024-04-18T05:32:04.391Z,0.50
2024-04-18T05:33:04.439Z,0.51
2024-04-18T05:34:04.531Z,0.52
2024-04-18T05:35:04.367Z,0.51
2024-04-18T05:36:04.756Z,0.51
2024-04-18T05:37:04.354Z,0.52
2024-04-18T05:38:04.350Z,0.51
2024-04-18T05:39:04.342Z,0.51
2024-04-18T05:40:04.468Z,0.51
2024-04-18T05:41:04.353Z,0.52
2024-04-18T05:42:04.375Z,0.53
2024-04-18T05:43:04.344Z,0.52
2024-04-18T05:44:04.390Z,0.52
2024-04-18T05:45:04.414Z,0.51
2024-04-18T05:46:04.757Z,0.51
2024-04-18T05:47:05.187Z,0.52
2024-04-18T05:48:04.560Z,0.53
2024-04-18T05:49:04.562Z,0.54
2024-04-18T05:50:04.574Z,0.52
2024-04-18T05:51:04.615Z,0.52
2024-04-18T05:52:04.650Z,0.52
2024-04-18T05:53:04.804Z,0.50
2024-04-18T05:54:04.716Z,0.50
2024-04-18T05:55:04.739Z,0.51
2024-04-18T05:56:04.807Z,0.51
2024-04-18T05:57:04.803Z,0.51
2024-04-18T05:58:04.863Z,0.51
2024-04-18T05:59:04.866Z,0.50
2024-04-18T06:00:04.882Z,0.50
2024-04-18T06:01:05.130Z,0.50
2024-04-18T06:02:04.982Z,0.51
2024-04-18T06:03:05.025Z,0.51
2024-04-18T06:04:05.103Z,0.50
2024-04-18T06:05:05.198Z,0.52
2024-04-18T06:06:05.082Z,0.52
2024-04-18T06:07:05.108Z,0.50
2024-04-18T06:08:05.142Z,0.51
2024-04-18T06:09:05.217Z,0.51
2024-04-18T06:10:05.248Z,0.51
2024-04-18T06:11:05.312Z,0.50
2024-04-18T06:12:05.270Z,0.51
2024-04-18T06:13:05.288Z,0.50
2024-04-18T06:14:06.169Z,0.50
2024-04-18T06:15:05.364Z,0.50
2024-04-18T06:16:05.481Z,0.51
2024-04-18T06:17:05.467Z,0.51
2024-04-18T06:18:05.496Z,0.51
2024-04-18T06:19:05.503Z,0.51
2024-04-18T06:20:05.558Z,0.51
2024-04-18T06:21:05.551Z,0.50
2024-04-18T06:22:05.561Z,0.49
2024-04-18T06:23:05.753Z,0.49
2024-04-18T06:24:05.545Z,0.47
2024-04-18T06:25:05.646Z,0.46
2024-04-18T06:26:05.581Z,0.50
2024-04-18T06:27:05.554Z,0.50
2024-04-18T06:28:05.593Z,0.50
2024-04-18T06:29:05.567Z,0.49
2024-04-18T06:30:05.566Z,0.50
2024-04-18T06:31:06.918Z,0.50
2024-04-18T06:32:05.598Z,0.50
2024-04-18T06:33:05.681Z,0.52
2024-04-18T06:34:05.817Z,0.55
2024-04-18T06:35:05.597Z,0.57
2024-04-18T06:36:05.605Z,0.58
2024-04-18T06:37:08.014Z,0.57
2024-04-18T06:38:05.877Z,0.61
2024-04-18T06:39:05.926Z,0.61
2024-04-18T06:40:05.974Z,0.62
2024-04-18T06:41:05.983Z,0.60
2024-04-18T06:42:06.014Z,0.60
2024-04-18T06:43:06.011Z,0.60
2024-04-18T06:44:06.116Z,0.59
2024-04-18T06:45:06.090Z,0.55
2024-04-18T06:46:06.129Z,0.57
2024-04-18T06:47:06.203Z,0.57
2024-04-18T06:48:06.299Z,0.56
2024-04-18T06:49:06.238Z,0.53
2024-04-18T06:50:06.244Z,0.53
2024-04-18T06:51:06.311Z,0.50
2024-04-18T06:52:06.325Z,0.51
2024-04-18T06:53:06.389Z,0.51
2024-04-18T06:54:06.431Z,0.50
2024-04-18T06:55:06.475Z,0.52
2024-04-18T06:56:06.491Z,0.51
2024-04-18T06:57:06.495Z,0.52
2024-04-18T06:58:06.599Z,0.48
2024-04-18T06:59:06.496Z,0.45
2024-04-18T07:00:06.529Z,0.44
2024-04-18T07:01:06.730Z,0.43
2024-04-18T07:02:06.511Z,0.40
2024-04-18T07:03:06.556Z,0.48
2024-04-18T07:04:06.632Z,0.50
2024-04-18T07:05:06.557Z,0.50
2024-04-18T07:06:06.489Z,0.51
2024-04-18T07:07:06.509Z,0.51
2024-04-18T07:08:07.276Z,0.49
2024-04-18T07:09:06.516Z,0.51
2024-04-18T07:10:06.526Z,0.51
2024-04-18T07:11:06.526Z,0.52
2024-04-18T07:12:06.486Z,0.50
2024-04-18T07:13:06.573Z,0.51
2024-04-18T07:14:06.531Z,0.52
2024-04-18T07:15:06.464Z,0.51
2024-04-18T07:16:06.461Z,0.50
2024-04-18T07:17:06.743Z,0.50
2024-04-18T07:18:06.604Z,0.52
2024-04-18T07:19:06.495Z,0.53
2024-04-18T07:20:06.515Z,0.52
2024-04-18T07:21:06.543Z,0.52
2024-04-18T07:22:06.620Z,0.51
2024-04-18T07:23:06.549Z,0.49
2024-04-18T07:24:06.521Z,0.49
2024-04-18T07:25:06.583Z,0.47
2024-04-18T07:26:06.507Z,0.45
2024-04-18T07:27:06.612Z,0.46
2024-04-18T07:28:06.499Z,0.45
2024-04-18T07:29:06.490Z,0.45
2024-04-18T07:30:06.520Z,0.44
2024-04-18T07:31:06.482Z,0.41
2024-04-18T07:32:06.470Z,0.40
2024-04-18T07:33:06.500Z,0.47
2024-04-18T07:34:06.479Z,0.50
2024-04-18T07:35:06.561Z,0.50
2024-04-18T07:36:06.454Z,0.50
2024-04-18T07:37:06.534Z,0.51
2024-04-18T07:38:06.466Z,0.51
2024-04-18T07:39:06.481Z,0.50
2024-04-18T07:40:06.530Z,0.50
2024-04-18T07:41:06.534Z,0.50
2024-04-18T07:42:06.542Z,0.50
2024-04-18T07:43:06.529Z,0.47
2024-04-18T07:44:06.524Z,0.45
2024-04-18T07:45:06.519Z,0.44
2024-04-18T07:46:06.570Z,0.50
2024-04-18T07:47:06.636Z,0.50
2024-04-18T07:48:06.721Z,0.52
2024-04-18T07:49:06.538Z,0.50
2024-04-18T07:50:06.499Z,0.51
2024-04-18T07:51:06.517Z,0.50
2024-04-18T07:52:12.499Z,0.51
2024-04-18T07:53:10.003Z,0.47
2024-04-18T07:54:06.555Z,0.47
2024-04-18T07:55:06.534Z,0.45
2024-04-18T07:56:06.930Z,0.42
2024-04-18T07:57:06.958Z,0.42
2024-04-18T07:58:07.541Z,0.40
2024-04-18T07:59:07.058Z,0.46
2024-04-18T08:00:07.319Z,0.50
2024-04-18T08:01:07.701Z,0.50
2024-04-18T08:02:08.561Z,0.50
2024-04-18T08:03:08.004Z,0.52
2024-04-18T08:04:27.110Z,0.48
2024-04-18T08:05:09.982Z,0.47
2024-04-18T08:06:09.325Z,0.45
2024-04-18T08:07:09.522Z,0.45
2024-04-18T08:08:10.470Z,0.44
2024-04-18T08:09:09.799Z,0.40
2024-04-18T08:10:10.541Z,0.41
2024-04-18T08:11:25.651Z,0.39
2024-04-18T08:13:10.407Z,0.37
2024-04-18T08:14:10.731Z,0.36
2024-04-18T08:15:11.177Z,0.35
2024-04-18T08:16:07.332Z,0.35
2024-04-18T08:17:06.493Z,0.35
2024-04-18T08:18:06.330Z,0.34
2024-04-18T08:19:06.315Z,0.35
2024-04-18T08:20:06.347Z,0.34
2024-04-18T08:21:06.377Z,0.39
2024-04-18T08:22:06.339Z,0.47
2024-04-18T08:23:06.609Z,0.50
2024-04-18T08:24:06.331Z,0.49
2024-04-18T08:25:07.223Z,0.53
2024-04-18T08:26:06.311Z,0.51
2024-04-18T08:27:06.414Z,0.51
2024-04-18T08:28:06.328Z,0.50
2024-04-18T08:29:06.336Z,0.47
2024-04-18T08:30:06.359Z,0.45
2024-04-18T08:31:06.335Z,0.42
2024-04-18T08:32:06.434Z,0.43
2024-04-18T08:33:06.418Z,0.52
2024-04-18T08:34:11.761Z,0.52
2024-04-18T08:35:07.330Z,0.52
2024-04-18T08:36:06.378Z,0.50
2024-04-18T08:37:07.144Z,0.47
2024-04-18T08:38:06.334Z,0.47
2024-04-18T08:39:06.393Z,0.45
2024-04-18T08:40:06.307Z,0.50
2024-04-18T08:41:07.374Z,0.53
2024-04-18T08:42:06.395Z,0.52
2024-04-18T08:43:06.300Z,0.54
2024-04-18T08:44:06.343Z,0.55
2024-04-18T08:45:07.296Z,0.55
2024-04-18T08:46:07.700Z,0.54
2024-04-18T08:47:06.380Z,0.56
2024-04-18T08:48:06.517Z,0.53
2024-04-18T08:49:07.406Z,0.53
2024-04-18T08:50:06.351Z,0.52
2024-04-18T08:51:06.433Z,0.50
2024-04-18T08:52:06.775Z,0.50
2024-04-18T08:53:06.415Z,0.51
2024-04-18T08:54:06.648Z,0.50
2024-04-18T08:55:06.632Z,0.50
2024-04-18T08:56:06.603Z,0.51
2024-04-18T08:57:06.600Z,0.52
2024-04-18T08:58:06.635Z,0.51
2024-04-18T08:59:06.735Z,0.50
2024-04-18T09:00:06.740Z,0.51
2024-04-18T09:01:06.731Z,0.50
2024-04-18T09:02:06.742Z,0.51
2024-04-18T09:03:06.839Z,0.52
2024-04-18T09:04:06.874Z,0.52
2024-04-18T09:05:06.833Z,0.50
2024-04-18T09:06:06.922Z,0.52
2024-04-18T09:07:06.935Z,0.50
2024-04-18T09:08:07.022Z,0.50
2024-04-18T09:09:06.968Z,0.51
2024-04-18T09:10:06.963Z,0.50
2024-04-18T09:11:07.111Z,0.51
2024-04-18T09:12:07.685Z,0.54
2024-04-18T09:13:07.645Z,0.53
2024-04-18T09:14:07.089Z,0.52
2024-04-18T09:15:07.179Z,0.53
2024-04-18T09:16:07.168Z,0.52
2024-04-18T09:17:07.139Z,0.48
2024-04-18T09:18:07.348Z,0.46
2024-04-18T09:19:08.687Z,0.45
2024-04-18T09:20:07.178Z,0.43
2024-04-18T09:21:07.133Z,0.41
2024-04-18T09:22:07.107Z,0.40
2024-04-18T09:23:07.124Z,0.38
2024-04-18T09:24:07.909Z,0.38
2024-04-18T09:25:07.106Z,0.37
2024-04-18T09:26:07.139Z,0.36
2024-04-18T09:27:07.160Z,0.37
2024-04-18T09:28:07.113Z,0.44
2024-04-18T09:29:07.104Z,0.51
2024-04-18T09:30:07.103Z,0.52
2024-04-18T09:31:07.199Z,0.54
2024-04-18T09:32:07.130Z,0.56
2024-04-18T09:33:07.903Z,0.57
2024-04-18T09:34:07.994Z,0.60
2024-04-18T09:35:07.067Z,0.62
2024-04-18T09:36:07.115Z,0.64
2024-04-18T09:37:07.036Z,0.64
2024-04-18T09:38:10.212Z,0.65
2024-04-18T09:39:07.765Z,0.64
2024-04-18T09:40:07.112Z,0.66
2024-04-18T09:41:06.987Z,0.70
2024-04-18T09:42:07.288Z,0.77
2024-04-18T09:43:07.088Z,0.90
2024-04-18T09:44:06.944Z,0.97
2024-04-18T09:45:06.973Z,1.04
2024-04-18T09:46:06.916Z,1.07
2024-04-18T09:47:06.939Z,1.17
2024-04-18T09:48:07.075Z,1.19
2024-04-18T09:49:06.983Z,1.19
2024-04-18T09:50:06.890Z,1.21
2024-04-18T09:51:06.893Z,1.26
2024-04-18T09:52:06.854Z,1.36
2024-04-18T09:53:06.859Z,1.55
2024-04-18T09:54:06.860Z,1.62
2024-04-18T09:55:06.799Z,1.69
2024-04-18T09:56:06.802Z,1.76
2024-04-18T09:57:06.803Z,1.87
2024-04-18T09:58:06.759Z,1.91
2024-04-18T09:59:06.796Z,2.04
2024-04-18T10:00:06.860Z,2.09
2024-04-18T10:01:06.895Z,2.20
2024-04-18T10:02:07.671Z,2.27
2024-04-18T10:03:07.026Z,2.44
2024-04-18T10:04:07.122Z,2.55
2024-04-18T10:05:07.026Z,2.69
2024-04-18T10:06:07.111Z,2.83
2024-04-18T10:07:07.329Z,3.00
2024-04-18T10:08:07.120Z,3.13
2024-04-18T10:09:07.309Z,3.34
2024-04-18T10:10:07.221Z,3.39
2024-04-18T10:11:07.262Z,3.63
2024-04-18T10:12:07.319Z,3.68
2024-04-18T10:13:07.338Z,3.81
2024-04-18T10:14:07.395Z,3.87
2024-04-18T10:15:07.481Z,4.15
2024-04-18T10:16:07.472Z,4.24
2024-04-18T10:17:07.611Z,4.48
2024-04-18T10:18:07.686Z,4.51
2024-04-18T10:19:07.653Z,4.92
2024-04-18T10:20:07.672Z,4.97
2024-04-18T10:21:07.776Z,5.09
2024-04-18T10:22:17.604Z,5.10
2024-04-18T10:23:08.702Z,5.11
2024-04-18T10:24:07.661Z,5.20
2024-04-18T10:25:07.606Z,5.42
2024-04-18T10:26:07.593Z,5.13
2024-04-18T10:27:07.598Z,5.29
2024-04-18T10:28:07.559Z,5.70
2024-04-18T10:29:07.520Z,6.33
2024-04-18T10:30:07.547Z,7.74
2024-04-18T10:31:08.723Z,7.97
2024-04-18T10:32:07.487Z,8.20
2024-04-18T10:33:07.562Z,8.47
2024-04-18T10:34:07.428Z,8.59
2024-04-18T10:35:07.403Z,8.81
2024-04-18T10:36:07.407Z,9.10
2024-04-18T10:37:07.802Z,9.17
2024-04-18T10:38:07.410Z,9.37
2024-04-18T10:39:07.531Z,9.43
2024-04-18T10:40:07.447Z,8.43
2024-04-18T10:41:07.484Z,6.95
2024-04-18T10:42:07.612Z,5.29
2024-04-18T10:43:09.278Z,3.92
2024-04-18T10:44:07.607Z,2.80
2024-04-18T10:45:07.691Z,2.11
2024-04-18T10:46:07.739Z,1.59
2024-04-18T10:47:07.908Z,1.20
2024-04-18T10:48:07.980Z,0.96
2024-04-18T10:49:07.992Z,0.77
2024-04-18T10:50:08.784Z,0.64
2024-04-18T10:51:08.093Z,0.54
2024-04-18T10:52:08.088Z,0.50
2024-04-18T10:53:08.150Z,0.50
2024-04-18T10:54:08.174Z,0.49
2024-04-18T10:55:08.145Z,0.50
2024-04-18T10:56:08.336Z,0.49
2024-04-18T10:57:08.191Z,0.50
2024-04-18T10:58:08.305Z,0.49
2024-04-18T10:59:08.267Z,0.50
2024-04-18T11:00:08.396Z,0.50
2024-04-18T11:01:08.427Z,0.50
2024-04-18T11:02:08.504Z,0.50
2024-04-18T11:03:08.573Z,0.45
2024-04-18T11:04:08.459Z,0.41
2024-04-18T11:05:08.484Z,0.37
2024-04-18T11:06:08.512Z,0.32
2024-04-18T11:07:08.528Z,0.30
2024-04-18T11:08:08.512Z,0.32
2024-04-18T11:09:08.525Z,0.37
2024-04-18T11:10:08.539Z,0.42
2024-04-18T11:11:08.552Z,0.47
2024-04-18T11:12:08.659Z,0.50
2024-04-18T11:13:08.619Z,0.50
2024-04-18T11:14:10.218Z,0.50
2024-04-18T11:15:08.697Z,0.50
2024-04-18T11:16:08.688Z,0.49
2024-04-18T11:17:08.752Z,0.49
2024-04-18T11:18:08.899Z,0.50
2024-04-18T11:19:08.838Z,0.50
2024-04-18T11:20:08.824Z,0.51
2024-04-18T11:21:08.854Z,0.50
2024-04-18T11:22:09.039Z,0.50
2024-04-18T11:23:14.929Z,0.45
2024-04-18T11:24:10.004Z,0.41
2024-04-18T11:25:08.970Z,0.39
2024-04-18T11:26:09.162Z,0.39
2024-04-18T11:27:09.077Z,0.42
2024-04-18T11:28:09.035Z,0.46
2024-04-18T11:29:09.725Z,0.53
2024-04-18T11:30:09.122Z,0.61
2024-04-18T11:31:09.207Z,0.69
2024-04-18T11:32:09.154Z,0.69
2024-04-18T11:33:09.198Z,0.70
2024-04-18T11:34:09.131Z,0.73
2024-04-18T11:35:16.762Z,0.70
2024-04-18T11:36:10.168Z,0.71
2024-04-18T11:37:09.194Z,0.77
2024-04-18T11:38:09.168Z,0.92
2024-04-18T11:39:09.168Z,1.26
2024-04-18T11:40:09.137Z,2.09
2024-04-18T11:41:09.220Z,2.52
2024-04-18T11:42:09.272Z,2.77
2024-04-18T11:43:09.123Z,3.10
2024-04-18T11:44:09.112Z,3.38
2024-04-18T11:45:09.163Z,3.92
2024-04-18T11:46:09.088Z,4.45
2024-04-18T11:47:09.102Z,5.08
2024-04-18T11:48:09.269Z,5.77
2024-04-18T11:49:09.170Z,6.53
2024-04-18T11:50:09.121Z,7.70
2024-04-18T11:51:09.043Z,8.62
2024-04-18T11:52:09.018Z,9.69
2024-04-18T11:53:09.002Z,9.73
2024-04-18T11:54:09.053Z,10.05
2024-04-18T11:55:09.007Z,10.92
2024-04-18T11:56:08.955Z,13.06
2024-04-18T11:57:09.004Z,9.88
2024-04-18T11:58:08.962Z,10.75
2024-04-18T11:59:08.919Z,12.88
2024-04-18T12:00:08.935Z,17.27
2024-04-18T12:01:08.908Z,27.18
2024-04-18T12:02:08.908Z,30.24
2024-04-18T12:03:08.955Z,33.29
2024-04-18T12:04:09.096Z,38.31
2024-04-18T12:05:08.907Z,41.62
2024-04-18T12:06:08.952Z,46.00
2024-04-18T12:07:08.914Z,49.74
2024-04-18T12:08:09.039Z,54.08
2024-04-18T12:09:09.058Z,58.61
2024-04-18T12:10:09.073Z,64.91
2024-04-18T12:11:09.130Z,68.56
2024-04-18T12:12:09.207Z,75.77
2024-04-18T12:13:09.214Z,81.11
2024-04-18T12:14:09.856Z,88.59
2024-04-18T12:15:09.474Z,97.59
2024-04-18T12:16:09.476Z,105.05
2024-04-18T12:17:09.439Z,112.96
2024-04-18T12:18:09.507Z,121.81
2024-04-18T12:19:09.550Z,128.41
2024-04-18T12:20:09.584Z,138.95
2024-04-18T12:21:09.652Z,148.42
2024-04-18T12:22:09.698Z,159.06
2024-04-18T12:23:09.763Z,162.81
2024-04-18T12:24:09.835Z,174.47
2024-04-18T12:25:09.814Z,184.61
2024-04-18T12:26:09.864Z,193.99
2024-04-18T12:27:10.037Z,205.67
2024-04-18T12:28:09.950Z,208.16
2024-04-18T12:29:10.002Z,222.27
2024-04-18T12:30:10.031Z,233.31
2024-04-18T12:31:10.050Z,249.88
2024-04-18T12:32:10.127Z,257.97
2024-04-18T12:33:10.166Z,263.92
2024-04-18T12:34:10.156Z,270.25
2024-04-18T12:35:10.201Z,282.17
2024-04-18T12:36:10.257Z,296.83
2024-04-18T12:37:10.246Z,303.72
2024-04-18T12:38:10.272Z,318.23
2024-04-18T12:39:10.360Z,323.59
2024-04-18T12:40:10.370Z,337.66
2024-04-18T12:41:10.430Z,337.56
2024-04-18T12:42:10.437Z,358.98
2024-04-18T12:43:10.423Z,369.60
2024-04-18T12:44:10.456Z,383.66
2024-04-18T12:45:10.580Z,387.36
2024-04-18T12:46:17.495Z,395.40
2024-04-18T12:47:11.550Z,396.13
2024-04-18T12:48:10.593Z,401.17
2024-04-18T12:49:10.702Z,412.15
2024-04-18T12:50:10.485Z,439.37
2024-04-18T12:51:10.413Z,397.77
2024-04-18T12:52:10.397Z,398.08
2024-04-18T12:53:10.382Z,406.25
2024-04-18T12:54:10.499Z,418.44
2024-04-18T12:55:10.335Z,461.94
2024-04-18T12:56:10.299Z,534.47
2024-04-18T12:57:10.373Z,535.06
2024-04-18T12:58:10.258Z,549.59
2024-04-18T12:59:10.233Z,600.61
2024-04-18T13:00:10.256Z,574.36
2024-04-18T13:01:10.437Z,610.51
2024-04-18T13:02:10.167Z,612.08
2024-04-18T13:03:10.225Z,626.23
2024-04-18T13:04:10.180Z,684.49
2024-04-18T13:05:10.147Z,710.20
2024-04-18T13:06:10.130Z,703.05
2024-04-18T13:07:10.387Z,741.58
2024-04-18T13:08:10.057Z,779.13
2024-04-18T13:09:10.149Z,796.57
2024-04-18T13:10:10.066Z,862.10
2024-04-18T13:11:10.136Z,912.87
2024-04-18T13:12:10.139Z,867.16
2024-04-18T13:13:10.156Z,901.29
2024-04-18T13:14:10.067Z,977.93
2024-04-18T13:15:10.212Z,962.28